sensor_id;sensor_type;location;lat;lon;timestamp;P1;durP1;ratioP1;P2;durP2;ratioP2
18249;SDS011;27980;52.126;5.572;2023-07-31T00:01:43;3.50;;;1.08;;
18249;SDS011;27980;52.126;5.572;2023-07-31T00:04:09;1.40;;;1.17;;
18249;SDS011;27980;52.126;5.572;2023-07-31T00:06:36;2.67;;;1.20;;
18249;SDS011;27980;52.126;5.572;2023-07-31T00:09:03;1.20;;;1.10;;
18249;SDS011;27980;52.126;5.572;2023-07-31T00:11:30;1.15;;;1.05;;
18249;SDS011;27980;52.126;5.572;2023-07-31T00:13:56;3.20;;;1.30;;
18249;SDS011;27980;52.126;5.572;2023-07-31T00:16:23;1.52;;;1.25;;
18249;SDS011;27980;52.126;5.572;2023-07-31T00:18:49;1.40;;;1.27;;
18249;SDS011;27980;52.126;5.572;2023-07-31T00:21:16;1.35;;;1.13;;
18249;SDS011;27980;52.126;5.572;2023-07-31T00:23:42;2.70;;;1.45;;
18249;SDS011;27980;52.126;5.572;2023-07-31T00:26:10;2.28;;;1.40;;
18249;SDS011;27980;52.126;5.572;2023-07-31T00:28:37;1.65;;;1.40;;
18249;SDS011;27980;52.126;5.572;2023-07-31T00:31:03;1.40;;;1.30;;
18249;SDS011;27980;52.126;5.572;2023-07-31T00:33:30;2.60;;;1.83;;
18249;SDS011;27980;52.126;5.572;2023-07-31T00:35:57;2.05;;;1.50;;
18249;SDS011;27980;52.126;5.572;2023-07-31T00:38:24;1.95;;;1.80;;
18249;SDS011;27980;52.126;5.572;2023-07-31T00:40:50;2.25;;;1.60;;
18249;SDS011;27980;52.126;5.572;2023-07-31T00:43:18;4.90;;;1.80;;
18249;SDS011;27980;52.126;5.572;2023-07-31T00:45:45;4.60;;;2.70;;
18249;SDS011;27980;52.126;5.572;2023-07-31T00:48:12;5.07;;;2.58;;
18249;SDS011;27980;52.126;5.572;2023-07-31T00:50:39;5.65;;;3.35;;
18249;SDS011;27980;52.126;5.572;2023-07-31T00:53:05;11.10;;;4.57;;
18249;SDS011;27980;52.126;5.572;2023-07-31T00:55:32;8.68;;;3.90;;
18249;SDS011;27980;52.126;5.572;2023-07-31T00:57:58;7.50;;;3.95;;
18249;SDS011;27980;52.126;5.572;2023-07-31T01:00:26;9.10;;;4.53;;
18249;SDS011;27980;52.126;5.572;2023-07-31T01:02:53;11.10;;;4.80;;
18249;SDS011;27980;52.126;5.572;2023-07-31T01:05:20;11.77;;;4.82;;
18249;SDS011;27980;52.126;5.572;2023-07-31T01:07:52;13.10;;;4.18;;
18249;SDS011;27980;52.126;5.572;2023-07-31T01:10:23;13.50;;;4.78;;
18249;SDS011;27980;52.126;5.572;2023-07-31T01:12:52;21.25;;;5.85;;
18249;SDS011;27980;52.126;5.572;2023-07-31T01:15:19;14.27;;;5.63;;
18249;SDS011;27980;52.126;5.572;2023-07-31T01:17:48;21.60;;;5.03;;
18249;SDS011;27980;52.126;5.572;2023-07-31T01:20:16;15.65;;;5.28;;
18249;SDS011;27980;52.126;5.572;2023-07-31T01:22:48;22.80;;;5.97;;
18249;SDS011;27980;52.126;5.572;2023-07-31T01:25:21;20.95;;;6.45;;
18249;SDS011;27980;52.126;5.572;2023-07-31T01:27:59;20.98;;;5.00;;
18249;SDS011;27980;52.126;5.572;2023-07-31T01:30:27;17.63;;;5.22;;
18249;SDS011;27980;52.126;5.572;2023-07-31T01:32:55;22.23;;;5.88;;
18249;SDS011;27980;52.126;5.572;2023-07-31T01:35:22;16.88;;;5.53;;
18249;SDS011;27980;52.126;5.572;2023-07-31T01:37:51;17.90;;;5.95;;
18249;SDS011;27980;52.126;5.572;2023-07-31T01:40:18;22.00;;;4.80;;
18249;SDS011;27980;52.126;5.572;2023-07-31T01:42:44;13.43;;;5.57;;
18249;SDS011;27980;52.126;5.572;2023-07-31T01:45:13;19.73;;;5.70;;
18249;SDS011;27980;52.126;5.572;2023-07-31T01:47:39;14.60;;;4.60;;
18249;SDS011;27980;52.126;5.572;2023-07-31T01:50:06;15.27;;;4.95;;
18249;SDS011;27980;52.126;5.572;2023-07-31T01:52:35;21.27;;;5.55;;
18249;SDS011;27980;52.126;5.572;2023-07-31T01:55:01;9.85;;;4.50;;
18249;SDS011;27980;52.126;5.572;2023-07-31T01:57:28;15.00;;;4.78;;
18249;SDS011;27980;52.126;5.572;2023-07-31T01:59:54;18.88;;;5.45;;
18249;SDS011;27980;52.126;5.572;2023-07-31T02:02:22;15.10;;;5.22;;
18249;SDS011;27980;52.126;5.572;2023-07-31T02:04:49;14.73;;;5.15;;
18249;SDS011;27980;52.126;5.572;2023-07-31T02:07:15;11.02;;;4.53;;
18249;SDS011;27980;52.126;5.572;2023-07-31T02:09:41;13.10;;;5.18;;
18249;SDS011;27980;52.126;5.572;2023-07-31T02:12:08;16.25;;;5.05;;
18249;SDS011;27980;52.126;5.572;2023-07-31T02:14:35;9.90;;;4.38;;
18249;SDS011;27980;52.126;5.572;2023-07-31T02:17:01;16.73;;;5.90;;
18249;SDS011;27980;52.126;5.572;2023-07-31T02:19:29;14.27;;;4.80;;
18249;SDS011;27980;52.126;5.572;2023-07-31T02:21:56;16.17;;;4.68;;
18249;SDS011;27980;52.126;5.572;2023-07-31T02:24:22;14.07;;;4.80;;
18249;SDS011;27980;52.126;5.572;2023-07-31T02:26:49;14.32;;;4.30;;
18249;SDS011;27980;52.126;5.572;2023-07-31T02:29:15;9.90;;;4.32;;
18249;SDS011;27980;52.126;5.572;2023-07-31T02:31:42;9.88;;;4.68;;
18249;SDS011;27980;52.126;5.572;2023-07-31T02:34:08;12.57;;;4.97;;
18249;SDS011;27980;52.126;5.572;2023-07-31T02:36:36;13.55;;;4.43;;
18249;SDS011;27980;52.126;5.572;2023-07-31T02:39:03;13.45;;;4.55;;
18249;SDS011;27980;52.126;5.572;2023-07-31T02:41:29;9.57;;;4.45;;
18249;SDS011;27980;52.126;5.572;2023-07-31T02:43:55;13.07;;;4.90;;
18249;SDS011;27980;52.126;5.572;2023-07-31T02:46:22;9.95;;;3.95;;
18249;SDS011;27980;52.126;5.572;2023-07-31T02:48:49;10.65;;;3.97;;
18249;SDS011;27980;52.126;5.572;2023-07-31T02:51:16;8.45;;;3.35;;
18249;SDS011;27980;52.126;5.572;2023-07-31T02:53:43;14.68;;;4.45;;
18249;SDS011;27980;52.126;5.572;2023-07-31T02:56:10;16.27;;;4.45;;
18249;SDS011;27980;52.126;5.572;2023-07-31T02:58:36;8.60;;;4.90;;
18249;SDS011;27980;52.126;5.572;2023-07-31T03:01:03;13.55;;;4.35;;
18249;SDS011;27980;52.126;5.572;2023-07-31T03:03:30;13.00;;;4.90;;
18249;SDS011;27980;52.126;5.572;2023-07-31T03:05:57;14.20;;;4.28;;
18249;SDS011;27980;52.126;5.572;2023-07-31T03:08:23;10.50;;;5.03;;
18249;SDS011;27980;52.126;5.572;2023-07-31T03:10:51;16.17;;;4.88;;
18249;SDS011;27980;52.126;5.572;2023-07-31T03:13:17;21.90;;;4.85;;
18249;SDS011;27980;52.126;5.572;2023-07-31T03:15:44;16.63;;;5.05;;
18249;SDS011;27980;52.126;5.572;2023-07-31T03:18:10;16.17;;;5.97;;
18249;SDS011;27980;52.126;5.572;2023-07-31T03:20:37;12.15;;;5.13;;
18249;SDS011;27980;52.126;5.572;2023-07-31T03:23:03;14.43;;;5.07;;
18249;SDS011;27980;52.126;5.572;2023-07-31T03:25:30;15.52;;;5.85;;
18249;SDS011;27980;52.126;5.572;2023-07-31T03:27:57;23.27;;;5.93;;
18249;SDS011;27980;52.126;5.572;2023-07-31T03:30:24;16.27;;;6.03;;
18249;SDS011;27980;52.126;5.572;2023-07-31T03:32:50;16.85;;;6.47;;
18249;SDS011;27980;52.126;5.572;2023-07-31T03:35:17;24.50;;;6.38;;
18249;SDS011;27980;52.126;5.572;2023-07-31T03:37:43;20.67;;;6.05;;
18249;SDS011;27980;52.126;5.572;2023-07-31T03:40:10;14.80;;;6.68;;
18249;SDS011;27980;52.126;5.572;2023-07-31T03:42:36;20.92;;;6.68;;
18249;SDS011;27980;52.126;5.572;2023-07-31T03:45:06;19.95;;;6.18;;
18249;SDS011;27980;52.126;5.572;2023-07-31T03:47:33;20.38;;;6.85;;
18249;SDS011;27980;52.126;5.572;2023-07-31T03:50:01;15.73;;;5.93;;
18249;SDS011;27980;52.126;5.572;2023-07-31T03:52:27;15.00;;;5.57;;
18249;SDS011;27980;52.126;5.572;2023-07-31T03:54:54;21.38;;;6.88;;
18249;SDS011;27980;52.126;5.572;2023-07-31T03:57:20;15.05;;;5.30;;
18249;SDS011;27980;52.126;5.572;2023-07-31T03:59:46;17.38;;;5.80;;
18249;SDS011;27980;52.126;5.572;2023-07-31T04:02:14;16.48;;;5.45;;
18249;SDS011;27980;52.126;5.572;2023-07-31T04:04:41;20.15;;;5.53;;
18249;SDS011;27980;52.126;5.572;2023-07-31T04:07:07;22.48;;;5.40;;
18249;SDS011;27980;52.126;5.572;2023-07-31T04:09:34;20.75;;;6.05;;
18249;SDS011;27980;52.126;5.572;2023-07-31T04:12:00;20.13;;;5.50;;
18249;SDS011;27980;52.126;5.572;2023-07-31T04:14:27;18.88;;;6.00;;
18249;SDS011;27980;52.126;5.572;2023-07-31T04:16:53;19.00;;;5.88;;
18249;SDS011;27980;52.126;5.572;2023-07-31T04:19:21;19.85;;;6.60;;
18249;SDS011;27980;52.126;5.572;2023-07-31T04:21:49;14.23;;;6.00;;
18249;SDS011;27980;52.126;5.572;2023-07-31T04:24:15;19.50;;;5.63;;
18249;SDS011;27980;52.126;5.572;2023-07-31T04:26:49;17.10;;;5.57;;
18249;SDS011;27980;52.126;5.572;2023-07-31T04:29:15;14.55;;;5.65;;
18249;SDS011;27980;52.126;5.572;2023-07-31T04:31:42;16.30;;;5.63;;
18249;SDS011;27980;52.126;5.572;2023-07-31T04:34:08;17.27;;;6.72;;
18249;SDS011;27980;52.126;5.572;2023-07-31T04:36:36;15.13;;;5.72;;
18249;SDS011;27980;52.126;5.572;2023-07-31T04:39:02;14.43;;;5.70;;
18249;SDS011;27980;52.126;5.572;2023-07-31T04:41:29;21.42;;;6.07;;
18249;SDS011;27980;52.126;5.572;2023-07-31T04:43:55;15.70;;;5.55;;
18249;SDS011;27980;52.126;5.572;2023-07-31T04:46:22;18.70;;;6.32;;
18249;SDS011;27980;52.126;5.572;2023-07-31T04:48:48;10.27;;;5.07;;
18249;SDS011;27980;52.126;5.572;2023-07-31T04:51:15;16.33;;;5.35;;
18249;SDS011;27980;52.126;5.572;2023-07-31T04:53:43;17.98;;;5.15;;
18249;SDS011;27980;52.126;5.572;2023-07-31T04:56:09;17.65;;;5.00;;
18249;SDS011;27980;52.126;5.572;2023-07-31T04:58:35;17.02;;;5.25;;
18249;SDS011;27980;52.126;5.572;2023-07-31T05:01:02;12.02;;;5.35;;
18249;SDS011;27980;52.126;5.572;2023-07-31T05:03:28;14.18;;;5.38;;
18249;SDS011;27980;52.126;5.572;2023-07-31T05:05:55;15.25;;;5.93;;
18249;SDS011;27980;52.126;5.572;2023-07-31T05:08:23;15.55;;;4.78;;
18249;SDS011;27980;52.126;5.572;2023-07-31T05:10:50;17.80;;;5.95;;
18249;SDS011;27980;52.126;5.572;2023-07-31T05:13:17;13.63;;;5.28;;
18249;SDS011;27980;52.126;5.572;2023-07-31T05:15:43;13.57;;;5.25;;
18249;SDS011;27980;52.126;5.572;2023-07-31T05:18:14;16.13;;;5.45;;
18249;SDS011;27980;52.126;5.572;2023-07-31T05:20:40;14.80;;;6.07;;
18249;SDS011;27980;52.126;5.572;2023-07-31T05:23:07;8.95;;;4.20;;
18249;SDS011;27980;52.126;5.572;2023-07-31T05:25:33;14.15;;;5.20;;
18249;SDS011;27980;52.126;5.572;2023-07-31T05:28:01;16.17;;;5.63;;
18249;SDS011;27980;52.126;5.572;2023-07-31T05:30:32;16.23;;;5.15;;
18249;SDS011;27980;52.126;5.572;2023-07-31T05:32:59;16.92;;;5.07;;
18249;SDS011;27980;52.126;5.572;2023-07-31T05:35:25;13.23;;;4.50;;
18249;SDS011;27980;52.126;5.572;2023-07-31T05:37:52;8.77;;;4.25;;
18249;SDS011;27980;52.126;5.572;2023-07-31T05:40:18;10.68;;;4.50;;
18249;SDS011;27980;52.126;5.572;2023-07-31T05:42:45;11.00;;;4.55;;
18249;SDS011;27980;52.126;5.572;2023-07-31T05:45:12;13.43;;;4.15;;
18249;SDS011;27980;52.126;5.572;2023-07-31T05:47:39;7.70;;;2.97;;
18249;SDS011;27980;52.126;5.572;2023-07-31T05:50:06;10.40;;;4.28;;
18249;SDS011;27980;52.126;5.572;2023-07-31T05:52:32;9.43;;;3.55;;
18249;SDS011;27980;52.126;5.572;2023-07-31T05:54:59;7.97;;;3.50;;
18249;SDS011;27980;52.126;5.572;2023-07-31T05:57:25;6.53;;;3.13;;
18249;SDS011;27980;52.126;5.572;2023-07-31T05:59:51;6.88;;;3.55;;
18249;SDS011;27980;52.126;5.572;2023-07-31T06:02:21;4.75;;;3.20;;
18249;SDS011;27980;52.126;5.572;2023-07-31T06:04:47;8.32;;;3.58;;
18249;SDS011;27980;52.126;5.572;2023-07-31T06:07:13;8.10;;;4.25;;
18249;SDS011;27980;52.126;5.572;2023-07-31T06:09:40;6.45;;;4.20;;
18249;SDS011;27980;52.126;5.572;2023-07-31T06:12:07;6.57;;;3.92;;
18249;SDS011;27980;52.126;5.572;2023-07-31T06:14:34;10.30;;;4.30;;
18249;SDS011;27980;52.126;5.572;2023-07-31T06:17:00;8.00;;;4.30;;
18249;SDS011;27980;52.126;5.572;2023-07-31T06:19:28;8.48;;;4.07;;
18249;SDS011;27980;52.126;5.572;2023-07-31T06:21:54;6.30;;;3.80;;
18249;SDS011;27980;52.126;5.572;2023-07-31T06:24:21;10.38;;;4.28;;
18249;SDS011;27980;52.126;5.572;2023-07-31T06:26:48;9.32;;;4.95;;
18249;SDS011;27980;52.126;5.572;2023-07-31T06:29:15;6.70;;;3.78;;
18249;SDS011;27980;52.126;5.572;2023-07-31T06:31:42;5.88;;;3.75;;
18249;SDS011;27980;52.126;5.572;2023-07-31T06:34:08;9.50;;;4.28;;
18249;SDS011;27980;52.126;5.572;2023-07-31T06:36:36;8.30;;;4.55;;
18249;SDS011;27980;52.126;5.572;2023-07-31T06:39:03;9.52;;;4.25;;
18249;SDS011;27980;52.126;5.572;2023-07-31T06:41:29;5.22;;;3.00;;
18249;SDS011;27980;52.126;5.572;2023-07-31T06:43:55;7.57;;;3.80;;
18249;SDS011;27980;52.126;5.572;2023-07-31T06:46:22;7.05;;;3.33;;
18249;SDS011;27980;52.126;5.572;2023-07-31T06:48:48;7.47;;;3.70;;
18249;SDS011;27980;52.126;5.572;2023-07-31T06:51:14;6.68;;;3.25;;
18249;SDS011;27980;52.126;5.572;2023-07-31T06:53:42;8.25;;;3.33;;
18249;SDS011;27980;52.126;5.572;2023-07-31T06:56:10;4.68;;;3.15;;
18249;SDS011;27980;52.126;5.572;2023-07-31T06:58:36;7.57;;;3.35;;
18249;SDS011;27980;52.126;5.572;2023-07-31T07:01:03;2.95;;;2.47;;
18249;SDS011;27980;52.126;5.572;2023-07-31T07:03:29;4.85;;;2.83;;
18249;SDS011;27980;52.126;5.572;2023-07-31T07:05:56;7.30;;;3.22;;
18249;SDS011;27980;52.126;5.572;2023-07-31T07:08:23;4.32;;;3.40;;
18249;SDS011;27980;52.126;5.572;2023-07-31T07:10:51;8.07;;;3.20;;
18249;SDS011;27980;52.126;5.572;2023-07-31T07:13:17;3.35;;;2.90;;
18249;SDS011;27980;52.126;5.572;2023-07-31T07:15:47;3.88;;;2.80;;
18249;SDS011;27980;52.126;5.572;2023-07-31T07:18:13;5.18;;;3.05;;
18249;SDS011;27980;52.126;5.572;2023-07-31T07:20:40;4.60;;;2.53;;
18249;SDS011;27980;52.126;5.572;2023-07-31T07:23:07;5.95;;;3.03;;
18249;SDS011;27980;52.126;5.572;2023-07-31T07:25:33;6.10;;;3.00;;
18249;SDS011;27980;52.126;5.572;2023-07-31T07:28:01;4.43;;;3.38;;
18249;SDS011;27980;52.126;5.572;2023-07-31T07:30:27;6.80;;;3.47;;
18249;SDS011;27980;52.126;5.572;2023-07-31T07:32:54;5.60;;;3.25;;
18249;SDS011;27980;52.126;5.572;2023-07-31T07:35:21;4.65;;;3.35;;
18249;SDS011;27980;52.126;5.572;2023-07-31T07:37:48;5.50;;;3.80;;
18249;SDS011;27980;52.126;5.572;2023-07-31T07:40:14;3.78;;;3.20;;
18249;SDS011;27980;52.126;5.572;2023-07-31T07:42:41;4.28;;;2.92;;
18249;SDS011;27980;52.126;5.572;2023-07-31T07:45:09;9.95;;;4.15;;
18249;SDS011;27980;52.126;5.572;2023-07-31T07:47:36;5.00;;;3.10;;
18249;SDS011;27980;52.126;5.572;2023-07-31T07:50:02;4.57;;;3.33;;
18249;SDS011;27980;52.126;5.572;2023-07-31T07:52:29;8.13;;;3.75;;
18249;SDS011;27980;52.126;5.572;2023-07-31T07:54:55;4.80;;;3.83;;
18249;SDS011;27980;52.126;5.572;2023-07-31T07:57:23;8.13;;;3.65;;
18249;SDS011;27980;52.126;5.572;2023-07-31T07:59:49;6.18;;;3.72;;
18249;SDS011;27980;52.126;5.572;2023-07-31T08:02:17;4.38;;;3.60;;
18249;SDS011;27980;52.126;5.572;2023-07-31T08:04:43;5.90;;;3.78;;
18249;SDS011;27980;52.126;5.572;2023-07-31T08:07:10;6.47;;;3.97;;
18249;SDS011;27980;52.126;5.572;2023-07-31T08:09:36;7.28;;;4.45;;
18249;SDS011;27980;52.126;5.572;2023-07-31T08:12:03;4.07;;;3.50;;
18249;SDS011;27980;52.126;5.572;2023-07-31T08:14:30;5.18;;;3.70;;
18249;SDS011;27980;52.126;5.572;2023-07-31T08:16:57;3.95;;;3.55;;
18249;SDS011;27980;52.126;5.572;2023-07-31T08:19:25;4.22;;;3.83;;
18249;SDS011;27980;52.126;5.572;2023-07-31T08:21:51;5.10;;;4.10;;
18249;SDS011;27980;52.126;5.572;2023-07-31T08:24:18;5.57;;;3.90;;
18249;SDS011;27980;52.126;5.572;2023-07-31T08:26:44;6.60;;;4.10;;
18249;SDS011;27980;52.126;5.572;2023-07-31T08:29:11;3.75;;;3.35;;
18249;SDS011;27980;52.126;5.572;2023-07-31T08:31:37;6.32;;;4.00;;
18249;SDS011;27980;52.126;5.572;2023-07-31T08:34:03;9.00;;;5.22;;
18249;SDS011;27980;52.126;5.572;2023-07-31T08:36:31;4.57;;;4.05;;
18249;SDS011;27980;52.126;5.572;2023-07-31T08:38:57;5.03;;;4.00;;
18249;SDS011;27980;52.126;5.572;2023-07-31T08:41:24;4.95;;;3.58;;
18249;SDS011;27980;52.126;5.572;2023-07-31T08:43:50;5.55;;;3.20;;
18249;SDS011;27980;52.126;5.572;2023-07-31T08:46:18;6.20;;;3.28;;
18249;SDS011;27980;52.126;5.572;2023-07-31T08:48:45;4.97;;;3.35;;
18249;SDS011;27980;52.126;5.572;2023-07-31T08:51:13;3.42;;;2.78;;
18249;SDS011;27980;52.126;5.572;2023-07-31T08:53:41;3.75;;;3.08;;
18249;SDS011;27980;52.126;5.572;2023-07-31T08:56:07;3.60;;;3.08;;
18249;SDS011;27980;52.126;5.572;2023-07-31T08:58:34;3.00;;;2.80;;
18249;SDS011;27980;52.126;5.572;2023-07-31T09:01:01;3.88;;;3.22;;
18249;SDS011;27980;52.126;5.572;2023-07-31T09:03:27;4.20;;;3.40;;
18249;SDS011;27980;52.126;5.572;2023-07-31T09:05:55;3.67;;;3.13;;
18249;SDS011;27980;52.126;5.572;2023-07-31T09:08:24;4.25;;;3.70;;
18249;SDS011;27980;52.126;5.572;2023-07-31T09:10:54;4.85;;;4.00;;
18249;SDS011;27980;52.126;5.572;2023-07-31T09:13:20;5.13;;;3.22;;
18249;SDS011;27980;52.126;5.572;2023-07-31T09:15:47;5.70;;;3.80;;
18249;SDS011;27980;52.126;5.572;2023-07-31T09:18:13;3.03;;;2.83;;
18249;SDS011;27980;52.126;5.572;2023-07-31T09:20:43;4.38;;;3.55;;
18249;SDS011;27980;52.126;5.572;2023-07-31T09:23:10;4.97;;;3.40;;
18249;SDS011;27980;52.126;5.572;2023-07-31T09:25:37;3.97;;;3.00;;
18249;SDS011;27980;52.126;5.572;2023-07-31T09:28:05;3.25;;;2.95;;
18249;SDS011;27980;52.126;5.572;2023-07-31T09:30:43;4.18;;;3.22;;
18249;SDS011;27980;52.126;5.572;2023-07-31T09:33:10;3.58;;;3.28;;
18249;SDS011;27980;52.126;5.572;2023-07-31T09:35:36;3.03;;;2.72;;
18249;SDS011;27980;52.126;5.572;2023-07-31T09:38:06;2.97;;;2.78;;
18249;SDS011;27980;52.126;5.572;2023-07-31T09:40:33;3.30;;;2.75;;
18249;SDS011;27980;52.126;5.572;2023-07-31T09:43:00;3.30;;;3.00;;
18249;SDS011;27980;52.126;5.572;2023-07-31T09:45:28;3.50;;;3.08;;
18249;SDS011;27980;52.126;5.572;2023-07-31T09:47:55;4.40;;;3.80;;
18249;SDS011;27980;52.126;5.572;2023-07-31T09:50:22;4.78;;;3.28;;
18249;SDS011;27980;52.126;5.572;2023-07-31T09:52:49;4.18;;;3.40;;
18249;SDS011;27980;52.126;5.572;2023-07-31T09:55:15;3.50;;;3.17;;
18249;SDS011;27980;52.126;5.572;2023-07-31T09:57:43;3.78;;;3.28;;
18249;SDS011;27980;52.126;5.572;2023-07-31T10:00:10;3.97;;;3.47;;
18249;SDS011;27980;52.126;5.572;2023-07-31T10:02:39;3.88;;;3.30;;
18249;SDS011;27980;52.126;5.572;2023-07-31T10:05:06;4.43;;;3.65;;
18249;SDS011;27980;52.126;5.572;2023-07-31T10:07:34;4.65;;;3.25;;
18249;SDS011;27980;52.126;5.572;2023-07-31T10:10:02;3.95;;;3.00;;
18249;SDS011;27980;52.126;5.572;2023-07-31T10:12:30;5.43;;;3.22;;
18249;SDS011;27980;52.126;5.572;2023-07-31T10:14:58;3.25;;;2.95;;
18249;SDS011;27980;52.126;5.572;2023-07-31T10:17:26;3.67;;;2.90;;
18249;SDS011;27980;52.126;5.572;2023-07-31T10:19:53;4.80;;;2.97;;
18249;SDS011;27980;52.126;5.572;2023-07-31T10:22:20;5.45;;;3.42;;
18249;SDS011;27980;52.126;5.572;2023-07-31T10:24:47;4.43;;;3.42;;
18249;SDS011;27980;52.126;5.572;2023-07-31T10:27:14;4.15;;;3.25;;
18249;SDS011;27980;52.126;5.572;2023-07-31T10:29:41;5.72;;;3.75;;
18249;SDS011;27980;52.126;5.572;2023-07-31T10:32:09;5.18;;;4.00;;
18249;SDS011;27980;52.126;5.572;2023-07-31T10:34:36;6.20;;;4.03;;
18249;SDS011;27980;52.126;5.572;2023-07-31T10:37:21;4.63;;;4.20;;
18249;SDS011;27980;52.126;5.572;2023-07-31T10:39:55;6.78;;;4.35;;
18249;SDS011;27980;52.126;5.572;2023-07-31T10:42:27;5.35;;;4.18;;
18249;SDS011;27980;52.126;5.572;2023-07-31T10:44:56;4.38;;;3.97;;
18249;SDS011;27980;52.126;5.572;2023-07-31T10:47:23;5.40;;;4.22;;
18249;SDS011;27980;52.126;5.572;2023-07-31T10:49:49;4.38;;;3.83;;
18249;SDS011;27980;52.126;5.572;2023-07-31T10:52:19;4.80;;;3.92;;
18249;SDS011;27980;52.126;5.572;2023-07-31T10:54:49;4.20;;;3.80;;
18249;SDS011;27980;52.126;5.572;2023-07-31T10:57:24;4.30;;;3.90;;
18249;SDS011;27980;52.126;5.572;2023-07-31T10:59:53;6.43;;;4.05;;
18249;SDS011;27980;52.126;5.572;2023-07-31T11:02:58;4.47;;;3.58;;
18249;SDS011;27980;52.126;5.572;2023-07-31T11:08:09;4.28;;;3.60;;
18249;SDS011;27980;52.126;5.572;2023-07-31T11:10:36;4.22;;;3.53;;
18249;SDS011;27980;52.126;5.572;2023-07-31T11:13:03;3.92;;;2.95;;
18249;SDS011;27980;52.126;5.572;2023-07-31T11:15:30;3.80;;;3.03;;
18249;SDS011;27980;52.126;5.572;2023-07-31T11:17:59;4.03;;;3.20;;
18249;SDS011;27980;52.126;5.572;2023-07-31T11:20:29;3.95;;;2.95;;
18249;SDS011;27980;52.126;5.572;2023-07-31T11:22:57;3.58;;;2.58;;
18249;SDS011;27980;52.126;5.572;2023-07-31T11:25:24;4.03;;;2.50;;
18249;SDS011;27980;52.126;5.572;2023-07-31T11:27:51;2.50;;;2.20;;
18249;SDS011;27980;52.126;5.572;2023-07-31T11:30:18;2.50;;;2.30;;
18249;SDS011;27980;52.126;5.572;2023-07-31T11:32:45;3.90;;;1.95;;
18249;SDS011;27980;52.126;5.572;2023-07-31T11:35:13;4.35;;;2.60;;
18249;SDS011;27980;52.126;5.572;2023-07-31T11:37:40;2.30;;;1.70;;
18249;SDS011;27980;52.126;5.572;2023-07-31T11:40:06;2.95;;;1.70;;
18249;SDS011;27980;52.126;5.572;2023-07-31T11:42:34;3.80;;;2.60;;
18249;SDS011;27980;52.126;5.572;2023-07-31T11:45:01;2.40;;;2.20;;
18249;SDS011;27980;52.126;5.572;2023-07-31T11:47:28;3.72;;;2.55;;
18249;SDS011;27980;52.126;5.572;2023-07-31T11:49:55;3.05;;;2.80;;
18249;SDS011;27980;52.126;5.572;2023-07-31T11:52:23;3.35;;;2.38;;
18249;SDS011;27980;52.126;5.572;2023-07-31T11:54:50;4.10;;;3.47;;
18249;SDS011;27980;52.126;5.572;2023-07-31T11:57:16;3.97;;;3.58;;
18249;SDS011;27980;52.126;5.572;2023-07-31T11:59:44;5.85;;;3.42;;
18249;SDS011;27980;52.126;5.572;2023-07-31T12:02:11;5.32;;;3.53;;
18249;SDS011;27980;52.126;5.572;2023-07-31T12:04:37;6.53;;;3.33;;
18249;SDS011;27980;52.126;5.572;2023-07-31T12:07:04;3.35;;;3.05;;
18249;SDS011;27980;52.126;5.572;2023-07-31T12:09:32;7.32;;;4.22;;
18249;SDS011;27980;52.126;5.572;2023-07-31T12:11:58;4.43;;;4.00;;
18249;SDS011;27980;52.126;5.572;2023-07-31T12:14:25;6.38;;;4.05;;
18249;SDS011;27980;52.126;5.572;2023-07-31T12:16:54;4.93;;;4.22;;
18249;SDS011;27980;52.126;5.572;2023-07-31T12:19:20;7.88;;;4.28;;
18249;SDS011;27980;52.126;5.572;2023-07-31T12:21:47;6.63;;;4.13;;
18249;SDS011;27980;52.126;5.572;2023-07-31T12:24:14;4.78;;;3.45;;
18249;SDS011;27980;52.126;5.572;2023-07-31T12:26:46;4.07;;;3.60;;
18249;SDS011;27980;52.126;5.572;2023-07-31T12:29:13;5.30;;;3.30;;
18249;SDS011;27980;52.126;5.572;2023-07-31T12:31:40;5.88;;;2.92;;
18249;SDS011;27980;52.126;5.572;2023-07-31T12:34:14;2.90;;;2.50;;
18249;SDS011;27980;52.126;5.572;2023-07-31T12:36:41;2.88;;;2.63;;
18249;SDS011;27980;52.126;5.572;2023-07-31T12:39:08;2.70;;;2.50;;
18249;SDS011;27980;52.126;5.572;2023-07-31T12:41:35;2.83;;;2.53;;
18249;SDS011;27980;52.126;5.572;2023-07-31T12:44:03;2.80;;;2.38;;
18249;SDS011;27980;52.126;5.572;2023-07-31T12:46:29;3.45;;;2.92;;
18249;SDS011;27980;52.126;5.572;2023-07-31T12:48:56;3.00;;;2.67;;
18249;SDS011;27980;52.126;5.572;2023-07-31T12:51:22;2.85;;;2.65;;
18249;SDS011;27980;52.126;5.572;2023-07-31T12:53:49;2.85;;;2.65;;
18249;SDS011;27980;52.126;5.572;2023-07-31T12:56:15;3.17;;;2.70;;
18249;SDS011;27980;52.126;5.572;2023-07-31T12:58:42;2.97;;;2.75;;
18249;SDS011;27980;52.126;5.572;2023-07-31T13:01:10;4.20;;;3.60;;
18249;SDS011;27980;52.126;5.572;2023-07-31T13:03:36;2.97;;;2.67;;
18249;SDS011;27980;52.126;5.572;2023-07-31T13:06:03;3.42;;;3.13;;
18249;SDS011;27980;52.126;5.572;2023-07-31T13:08:30;3.35;;;3.05;;
18249;SDS011;27980;52.126;5.572;2023-07-31T13:10:57;4.05;;;3.47;;
18249;SDS011;27980;52.126;5.572;2023-07-31T13:13:23;6.00;;;3.70;;
18249;SDS011;27980;52.126;5.572;2023-07-31T13:15:50;3.47;;;3.17;;
18249;SDS011;27980;52.126;5.572;2023-07-31T13:18:17;4.93;;;3.60;;
18249;SDS011;27980;52.126;5.572;2023-07-31T13:20:44;3.55;;;3.20;;
18249;SDS011;27980;52.126;5.572;2023-07-31T13:23:10;3.80;;;3.45;;
18249;SDS011;27980;52.126;5.572;2023-07-31T13:25:37;3.80;;;3.40;;
18249;SDS011;27980;52.126;5.572;2023-07-31T13:28:03;4.68;;;3.95;;
18249;SDS011;27980;52.126;5.572;2023-07-31T13:30:30;4.18;;;3.78;;
18249;SDS011;27980;52.126;5.572;2023-07-31T13:32:56;4.47;;;3.85;;
18249;SDS011;27980;52.126;5.572;2023-07-31T13:35:24;5.20;;;4.68;;
18249;SDS011;27980;52.126;5.572;2023-07-31T13:37:51;5.03;;;3.58;;
18249;SDS011;27980;52.126;5.572;2023-07-31T13:40:18;5.40;;;4.05;;
18249;SDS011;27980;52.126;5.572;2023-07-31T13:42:44;6.85;;;4.05;;
18249;SDS011;27980;52.126;5.572;2023-07-31T13:45:12;4.18;;;3.67;;
18249;SDS011;27980;52.126;5.572;2023-07-31T13:47:38;3.75;;;3.35;;
18249;SDS011;27980;52.126;5.572;2023-07-31T13:50:05;4.65;;;3.90;;
18249;SDS011;27980;52.126;5.572;2023-07-31T13:52:33;5.35;;;4.25;;
18249;SDS011;27980;52.126;5.572;2023-07-31T13:54:59;4.10;;;3.63;;
18249;SDS011;27980;52.126;5.572;2023-07-31T13:57:26;4.88;;;4.35;;
18249;SDS011;27980;52.126;5.572;2023-07-31T13:59:52;5.28;;;4.13;;
18249;SDS011;27980;52.126;5.572;2023-07-31T14:02:19;4.80;;;4.40;;
18249;SDS011;27980;52.126;5.572;2023-07-31T14:04:45;5.95;;;4.28;;
18249;SDS011;27980;52.126;5.572;2023-07-31T14:07:13;4.95;;;4.45;;
18249;SDS011;27980;52.126;5.572;2023-07-31T14:09:41;5.53;;;4.13;;
18249;SDS011;27980;52.126;5.572;2023-07-31T14:12:08;5.90;;;4.88;;
18249;SDS011;27980;52.126;5.572;2023-07-31T14:14:35;7.07;;;5.32;;
18249;SDS011;27980;52.126;5.572;2023-07-31T14:17:01;6.82;;;5.30;;
18249;SDS011;27980;52.126;5.572;2023-07-31T14:19:28;8.13;;;5.40;;
18249;SDS011;27980;52.126;5.572;2023-07-31T14:21:54;7.93;;;6.05;;
18249;SDS011;27980;52.126;5.572;2023-07-31T14:24:21;7.07;;;5.78;;
18249;SDS011;27980;52.126;5.572;2023-07-31T14:26:49;8.98;;;6.38;;
18249;SDS011;27980;52.126;5.572;2023-07-31T14:29:15;9.98;;;7.03;;
18249;SDS011;27980;52.126;5.572;2023-07-31T14:31:42;9.50;;;6.85;;
18249;SDS011;27980;52.126;5.572;2023-07-31T14:34:08;9.13;;;6.35;;
18249;SDS011;27980;52.126;5.572;2023-07-31T14:36:34;9.90;;;6.60;;
18249;SDS011;27980;52.126;5.572;2023-07-31T14:39:01;7.53;;;6.32;;
18249;SDS011;27980;52.126;5.572;2023-07-31T14:41:27;9.70;;;6.32;;
18249;SDS011;27980;52.126;5.572;2023-07-31T14:43:55;9.80;;;6.43;;
18249;SDS011;27980;52.126;5.572;2023-07-31T14:46:21;10.10;;;6.38;;